createdAt,value
2023-03-29T00:01:43.028Z,7.07
2023-03-29T00:04:47.440Z,7.28
2023-03-29T00:07:54.915Z,7.33
2023-03-29T00:11:00.037Z,7.11
2023-03-29T00:14:04.140Z,7.02
2023-03-29T00:17:07.752Z,6.97
2023-03-29T00:20:11.213Z,7.02
2023-03-29T00:23:14.802Z,7.10
2023-03-29T00:26:18.114Z,7.14
2023-03-29T00:29:22.287Z,7.23
2023-03-29T00:32:27.015Z,7.30
2023-03-29T00:35:30.350Z,7.53
2023-03-29T00:38:35.303Z,7.51
2023-03-29T00:41:38.385Z,7.54
2023-03-29T00:45:04.762Z,7.63
2023-03-29T00:48:12.076Z,7.65
2023-03-29T00:51:19.487Z,7.98
2023-03-29T00:54:22.610Z,8.19
2023-03-29T00:57:28.017Z,7.98
2023-03-29T01:00:36.261Z,7.79
2023-03-29T01:03:48.820Z,8.12
2023-03-29T01:07:01.989Z,8.39
2023-03-29T01:10:12.975Z,8.70
2023-03-29T01:13:23.002Z,9.06
2023-03-29T01:16:29.466Z,8.90
2023-03-29T01:19:39.598Z,8.84
2023-03-29T01:22:52.404Z,8.84
2023-03-29T01:26:11.569Z,8.46
2023-03-29T01:29:32.736Z,8.74
2023-03-29T01:32:48.448Z,9.04
2023-03-29T01:36:28.066Z,9.12
2023-03-29T01:39:32.246Z,9.29
2023-03-29T01:43:04.719Z,9.89
2023-03-29T01:46:22.223Z,9.78
2023-03-29T01:49:35.496Z,10.01
2023-03-29T01:52:54.736Z,10.02
2023-03-29T01:56:08.248Z,10.21
2023-03-29T01:59:17.200Z,10.18
2023-03-29T02:02:22.691Z,10.33
2023-03-29T02:05:29.015Z,10.48
2023-03-29T02:08:34.789Z,9.93
2023-03-29T02:11:37.999Z,9.65
2023-03-29T02:14:42.061Z,9.45
2023-03-29T02:17:46.942Z,10.05
2023-03-29T02:20:51.707Z,11.64
2023-03-29T02:23:59.410Z,12.03
2023-03-29T02:27:02.883Z,11.53
2023-03-29T02:30:11.753Z,12.09
2023-03-29T02:33:20.247Z,13.37
2023-03-29T02:36:28.808Z,13.96
2023-03-29T02:39:35.592Z,14.32
2023-03-29T02:42:43.446Z,14.78
2023-03-29T02:45:47.764Z,15.33
2023-03-29T02:48:54.932Z,15.48
2023-03-29T02:52:03.277Z,16.46
2023-03-29T02:55:11.772Z,16.47
2023-03-29T02:58:16.983Z,16.48
2023-03-29T03:01:23.848Z,17.10
2023-03-29T03:04:27.517Z,18.58
2023-03-29T03:07:30.751Z,18.56
2023-03-29T03:10:35.764Z,18.98
2023-03-29T03:13:40.246Z,19.53
2023-03-29T03:16:44.027Z,17.85
2023-03-29T03:19:48.346Z,17.15
2023-03-29T03:22:51.364Z,18.44
2023-03-29T03:25:56.327Z,18.17
2023-03-29T03:29:00.052Z,15.96
2023-03-29T03:32:21.748Z,15.25
2023-03-29T03:35:51.349Z,18.32
2023-03-29T03:38:54.680Z,16.86
2023-03-29T03:41:57.933Z,18.21
2023-03-29T03:45:01.059Z,19.76
2023-03-29T03:48:10.366Z,19.60
2023-03-29T03:51:33.542Z,20.57
2023-03-29T03:54:37.367Z,18.27
2023-03-29T03:58:00.959Z,16.75
2023-03-29T04:01:06.048Z,19.29
2023-03-29T04:04:20.436Z,15.88
2023-03-29T04:07:36.460Z,16.87
2023-03-29T04:11:05.392Z,15.40
2023-03-29T04:14:14.555Z,13.35
2023-03-29T04:17:41.247Z,13.59
2023-03-29T04:21:03.947Z,13.41
2023-03-29T04:24:10.026Z,14.38
2023-03-29T04:27:15.831Z,14.89
2023-03-29T04:30:18.840Z,15.46
2023-03-29T04:33:55.690Z,17.84
2023-03-29T04:37:00.542Z,20.88
2023-03-29T04:40:09.667Z,18.02
2023-03-29T04:43:25.617Z,15.93
2023-03-29T04:46:35.538Z,13.79
2023-03-29T04:49:56.919Z,14.02
2023-03-29T04:53:29.845Z,17.58
2023-03-29T04:56:33.597Z,14.74
2023-03-29T04:59:56.234Z,13.64
2023-03-29T05:03:20.391Z,12.95
2023-03-29T05:06:34.594Z,14.86
2023-03-29T05:09:39.157Z,13.92
2023-03-29T05:12:43.281Z,13.23
2023-03-29T05:15:47.093Z,13.05
2023-03-29T05:18:52.627Z,13.16
2023-03-29T05:21:56.044Z,13.31
2023-03-29T05:25:00.422Z,14.70
2023-03-29T05:28:05.739Z,13.69
2023-03-29T05:31:10.224Z,13.40
2023-03-29T05:34:15.605Z,13.15
2023-03-29T05:37:24.044Z,13.26
2023-03-29T05:40:33.357Z,13.57
2023-03-29T05:43:55.796Z,12.39
2023-03-29T05:47:02.046Z,12.38
2023-03-29T05:50:09.980Z,14.20
2023-03-29T05:53:14.435Z,15.31
2023-03-29T05:56:20.002Z,14.89
2023-03-29T05:59:25.017Z,13.91
2023-03-29T06:02:29.516Z,13.66
2023-03-29T06:05:33.636Z,13.55
2023-03-29T06:08:37.888Z,13.58
2023-03-29T06:11:59.444Z,13.19
2023-03-29T06:15:14.244Z,12.79
2023-03-29T06:18:24.102Z,13.90
2023-03-29T06:21:29.496Z,14.29
2023-03-29T06:24:33.950Z,14.68
2023-03-29T06:27:44.907Z,17.17
2023-03-29T06:30:50.893Z,19.88
2023-03-29T06:33:55.200Z,22.75
2023-03-29T06:37:14.479Z,22.53
2023-03-29T06:40:25.597Z,21.53
2023-03-29T06:43:32.046Z,17.13
2023-03-29T06:46:43.737Z,15.04
2023-03-29T06:49:46.792Z,13.75
2023-03-29T06:53:20.035Z,15.50
2023-03-29T06:56:32.852Z,16.85
2023-03-29T06:59:40.510Z,17.23
2023-03-29T07:02:50.223Z,16.75
2023-03-29T07:05:54.042Z,17.79
2023-03-29T07:09:00.386Z,17.51
2023-03-29T07:12:24.333Z,16.54
2023-03-29T07:15:32.812Z,16.27
2023-03-29T07:18:52.924Z,16.81
2023-03-29T07:22:14.666Z,18.27
2023-03-29T07:25:26.800Z,18.38
2023-03-29T07:28:30.340Z,20.39
2023-03-29T07:31:36.673Z,21.19
2023-03-29T07:35:03.268Z,20.29
2023-03-29T07:38:10.132Z,18.32
2023-03-29T07:41:18.244Z,17.53
2023-03-29T07:44:24.410Z,17.05
2023-03-29T07:47:28.603Z,15.98
2023-03-29T07:50:33.524Z,16.26
2023-03-29T07:53:39.590Z,18.25
2023-03-29T07:56:57.845Z,18.15
2023-03-29T08:00:20.176Z,17.50
2023-03-29T08:03:39.870Z,18.05
2023-03-29T08:06:44.076Z,17.58
2023-03-29T08:09:48.603Z,18.14
2023-03-29T08:12:53.886Z,20.57
2023-03-29T08:16:04.914Z,18.83
2023-03-29T08:19:14.719Z,19.45
2023-03-29T08:22:39.470Z,20.03
2023-03-29T08:25:48.482Z,21.28
2023-03-29T08:28:52.842Z,22.44
2023-03-29T08:31:59.179Z,23.26
2023-03-29T08:35:04.382Z,23.18
2023-03-29T08:38:13.361Z,23.82
2023-03-29T08:41:37.961Z,22.23
2023-03-29T08:45:02.947Z,22.19
2023-03-29T08:48:33.281Z,22.00
2023-03-29T08:51:50.225Z,21.38
2023-03-29T08:54:57.943Z,21.85
2023-03-29T08:58:08.163Z,23.03
2023-03-29T09:01:13.382Z,23.57
2023-03-29T09:04:35.388Z,22.77
2023-03-29T09:07:54.407Z,22.02
2023-03-29T09:11:23.379Z,22.55
2023-03-29T09:14:41.943Z,22.63
2023-03-29T09:17:55.415Z,21.75
2023-03-29T09:21:22.129Z,21.95
2023-03-29T09:24:47.677Z,22.02
2023-03-29T09:28:14.058Z,21.22
2023-03-29T09:31:38.041Z,18.88
2023-03-29T09:34:50.012Z,16.42
2023-03-29T09:37:56.808Z,14.79
2023-03-29T09:41:25.439Z,14.20
2023-03-29T09:44:54.050Z,14.12
2023-03-29T09:48:15.333Z,16.91
2023-03-29T09:51:29.107Z,18.21
2023-03-29T09:54:33.181Z,18.18
2023-03-29T09:58:02.683Z,17.70
2023-03-29T10:01:16.306Z,17.35
2023-03-29T10:04:22.519Z,17.16
2023-03-29T10:07:45.237Z,16.71
2023-03-29T10:10:50.996Z,15.67
2023-03-29T10:13:57.325Z,14.56
2023-03-29T10:17:02.024Z,14.09
2023-03-29T10:20:09.689Z,13.52
2023-03-29T10:23:19.825Z,12.71
2023-03-29T10:26:35.117Z,12.42
2023-03-29T10:29:43.096Z,12.26
2023-03-29T10:32:47.608Z,12.07
2023-03-29T10:35:52.505Z,11.93
2023-03-29T10:38:59.944Z,11.92
2023-03-29T10:42:05.957Z,11.60
2023-03-29T10:45:22.189Z,11.52
2023-03-29T10:48:37.070Z,11.35
2023-03-29T10:51:46.336Z,11.06
2023-03-29T10:54:53.325Z,10.81
2023-03-29T10:58:14.720Z,10.74
2023-03-29T11:01:30.023Z,10.69
2023-03-29T11:04:58.444Z,10.32
2023-03-29T11:08:11.837Z,10.16
2023-03-29T11:11:32.173Z,10.02
2023-03-29T11:14:56.817Z,9.71
2023-03-29T11:18:13.055Z,9.61
2023-03-29T11:21:27.783Z,9.55
2023-03-29T11:24:46.448Z,9.37
2023-03-29T11:28:13.423Z,9.49
2023-03-29T11:31:31.691Z,9.32
2023-03-29T11:35:20.275Z,9.31
2023-03-29T11:38:38.399Z,9.33
2023-03-29T11:41:47.494Z,9.36
2023-03-29T11:44:55.121Z,9.28
2023-03-29T11:48:01.312Z,9.22
2023-03-29T11:51:16.352Z,9.29
2023-03-29T11:54:47.182Z,9.25
2023-03-29T11:57:59.316Z,9.22
2023-03-29T12:01:08.014Z,9.13
2023-03-29T12:04:23.768Z,9.15
2023-03-29T12:07:29.417Z,9.07
2023-03-29T12:10:44.555Z,9.10
2023-03-29T12:13:54.384Z,9.00
2023-03-29T12:17:05.922Z,8.92
2023-03-29T12:20:27.392Z,8.91
2023-03-29T12:23:34.227Z,8.83
2023-03-29T12:27:20.358Z,8.96
2023-03-29T12:30:37.096Z,8.80
2023-03-29T12:34:01.564Z,8.75
2023-03-29T12:37:48.853Z,8.55
2023-03-29T12:41:25.790Z,8.52
2023-03-29T12:44:52.034Z,8.53
2023-03-29T12:48:02.997Z,8.57
2023-03-29T12:51:13.442Z,8.55
2023-03-29T12:54:29.470Z,8.53
2023-03-29T12:58:05.234Z,8.44
2023-03-29T13:01:23.659Z,8.31
2023-03-29T13:04:54.121Z,8.28
2023-03-29T13:07:57.896Z,8.25
2023-03-29T13:11:01.558Z,8.38
2023-03-29T13:14:14.295Z,8.22
2023-03-29T13:17:41.134Z,8.14
2023-03-29T13:21:17.760Z,8.02
2023-03-29T13:24:42.213Z,8.07
2023-03-29T13:28:04.995Z,7.95
2023-03-29T13:31:38.847Z,7.93
2023-03-29T13:35:08.169Z,8.01
2023-03-29T13:38:29.128Z,8.03
2023-03-29T13:41:41.614Z,8.05
2023-03-29T13:44:49.412Z,8.04
2023-03-29T13:48:07.300Z,7.98
2023-03-29T13:51:19.546Z,7.99
2023-03-29T13:54:42.684Z,7.98
2023-03-29T13:58:21.594Z,7.96
2023-03-29T14:01:40.568Z,7.93
2023-03-29T14:04:47.404Z,7.88
2023-03-29T14:07:55.119Z,7.79
2023-03-29T14:11:02.752Z,7.78
2023-03-29T14:14:08.813Z,7.76
2023-03-29T14:17:24.978Z,7.75
2023-03-29T14:20:28.515Z,7.76
2023-03-29T14:23:34.484Z,7.77
2023-03-29T14:26:38.919Z,7.73
2023-03-29T14:29:45.480Z,7.68
2023-03-29T14:32:50.969Z,7.69
2023-03-29T14:35:56.277Z,7.69
2023-03-29T14:39:06.278Z,7.68
2023-03-29T14:42:17.965Z,7.64
2023-03-29T14:45:26.357Z,7.70
2023-03-29T14:48:33.729Z,7.80
2023-03-29T14:51:37.639Z,7.89
2023-03-29T14:54:44.946Z,7.91
2023-03-29T14:57:48.573Z,7.97
2023-03-29T15:00:53.824Z,8.07
2023-03-29T15:04:04.105Z,8.20
2023-03-29T15:07:08.907Z,8.24
2023-03-29T15:10:20.181Z,8.14
2023-03-29T15:13:25.773Z,8.18
2023-03-29T15:16:31.548Z,8.18
2023-03-29T15:19:37.163Z,8.26
2023-03-29T15:22:52.410Z,8.23
2023-03-29T15:26:07.596Z,8.27
2023-03-29T15:29:24.270Z,8.32
2023-03-29T15:32:35.556Z,8.26
2023-03-29T15:35:38.639Z,8.21
2023-03-29T15:38:45.385Z,8.21
2023-03-29T15:41:51.903Z,8.14
2023-03-29T15:44:57.124Z,8.13
2023-03-29T15:48:05.197Z,8.03
2023-03-29T15:51:08.166Z,7.98
2023-03-29T15:54:11.445Z,7.87
2023-03-29T15:57:16.931Z,7.81
2023-03-29T16:00:21.654Z,7.81
2023-03-29T16:03:25.524Z,7.81
2023-03-29T16:06:29.223Z,7.80
2023-03-29T16:09:33.320Z,7.88
2023-03-29T16:12:39.023Z,7.85
2023-03-29T16:15:43.878Z,7.93
2023-03-29T16:18:48.092Z,7.98
2023-03-29T16:21:53.735Z,8.04
2023-03-29T16:24:57.660Z,8.18
2023-03-29T16:28:02.448Z,8.24
2023-03-29T16:31:06.684Z,8.28
2023-03-29T16:34:13.919Z,8.14
2023-03-29T16:37:17.628Z,8.17
2023-03-29T16:40:22.102Z,8.14
2023-03-29T16:43:25.747Z,8.08
2023-03-29T16:46:30.279Z,8.00
2023-03-29T16:49:34.108Z,7.97
2023-03-29T16:52:38.973Z,7.93
2023-03-29T16:55:43.308Z,7.96
2023-03-29T16:58:47.056Z,7.91
2023-03-29T17:01:50.263Z,7.89
2023-03-29T17:04:53.589Z,7.88
2023-03-29T17:07:57.385Z,7.88
2023-03-29T17:11:00.916Z,7.80
2023-03-29T17:14:04.662Z,7.69
2023-03-29T17:17:08.360Z,7.63
2023-03-29T17:20:15.945Z,7.62
2023-03-29T17:23:20.358Z,7.63
2023-03-29T17:26:24.189Z,7.58
2023-03-29T17:29:27.701Z,7.44
2023-03-29T17:32:31.867Z,7.35
2023-03-29T17:35:34.927Z,7.28
2023-03-29T17:38:38.631Z,7.17
2023-03-29T17:41:42.777Z,7.20
2023-03-29T17:44:46.854Z,7.32
2023-03-29T17:47:49.904Z,7.28
2023-03-29T17:50:55.278Z,7.17
2023-03-29T17:53:58.801Z,7.08
2023-03-29T17:57:02.165Z,7.03
2023-03-29T18:00:07.150Z,7.17
2023-03-29T18:03:10.726Z,7.17
2023-03-29T18:06:14.462Z,7.21
2023-03-29T18:09:17.525Z,7.15
2023-03-29T18:12:20.527Z,7.06
2023-03-29T18:15:24.246Z,7.03
2023-03-29T18:18:28.399Z,6.95
2023-03-29T18:21:32.193Z,6.86
2023-03-29T18:24:35.314Z,6.86
2023-03-29T18:27:39.601Z,6.86
2023-03-29T18:30:43.835Z,6.89
2023-03-29T18:33:48.128Z,6.83
2023-03-29T18:36:54.518Z,6.82
2023-03-29T18:39:57.776Z,6.78
2023-03-29T18:43:01.563Z,6.71
2023-03-29T18:46:04.777Z,6.73
2023-03-29T18:49:13.725Z,6.74
2023-03-29T18:52:17.406Z,6.73
2023-03-29T18:55:20.722Z,6.72
2023-03-29T18:58:24.558Z,6.68
2023-03-29T19:01:27.551Z,6.63
2023-03-29T19:04:30.856Z,6.51
2023-03-29T19:07:34.389Z,6.62
2023-03-29T19:10:39.729Z,6.82
2023-03-29T19:13:43.594Z,6.84
2023-03-29T19:16:46.803Z,6.79
2023-03-29T19:19:50.216Z,6.69
2023-03-29T19:22:54.319Z,6.61
2023-03-29T19:26:01.243Z,6.56
2023-03-29T19:29:06.086Z,6.56
2023-03-29T19:32:10.453Z,6.63
2023-03-29T19:35:14.089Z,6.55
2023-03-29T19:38:18.914Z,6.52
2023-03-29T19:41:22.735Z,6.46
2023-03-29T19:44:26.710Z,6.37
2023-03-29T19:47:30.308Z,6.26
2023-03-29T19:50:34.479Z,6.43
2023-03-29T19:53:39.087Z,6.46
2023-03-29T19:56:43.803Z,6.48
2023-03-29T19:59:47.389Z,6.48
2023-03-29T20:02:51.801Z,6.53
2023-03-29T20:05:57.800Z,6.78
2023-03-29T20:09:01.120Z,6.95
2023-03-29T20:12:04.787Z,6.93
2023-03-29T20:15:08.389Z,7.02
2023-03-29T20:18:11.656Z,6.99
2023-03-29T20:21:17.502Z,6.98
2023-03-29T20:24:21.527Z,6.83
2023-03-29T20:27:24.769Z,6.74
2023-03-29T20:30:28.896Z,6.60
2023-03-29T20:33:32.057Z,6.38
2023-03-29T20:36:36.074Z,6.23
2023-03-29T20:39:39.855Z,6.20
2023-03-29T20:42:43.806Z,6.21
2023-03-29T20:45:53.822Z,6.14
2023-03-29T20:48:58.126Z,6.10
2023-03-29T20:52:01.867Z,6.11
2023-03-29T20:55:06.614Z,6.10
2023-03-29T20:58:10.218Z,6.06
2023-03-29T21:01:15.294Z,6.07
2023-03-29T21:04:19.576Z,6.02
2023-03-29T21:07:23.692Z,6.03
2023-03-29T21:10:28.771Z,6.03
2023-03-29T21:13:36.555Z,6.04
2023-03-29T21:16:42.206Z,6.04
2023-03-29T21:19:46.529Z,6.04
2023-03-29T21:22:51.161Z,6.04
2023-03-29T21:25:55.170Z,6.06
2023-03-29T21:28:58.888Z,6.09
2023-03-29T21:32:03.026Z,6.10
2023-03-29T21:35:07.519Z,6.12
2023-03-29T21:38:11.729Z,6.12
2023-03-29T21:41:15.555Z,6.11
2023-03-29T21:44:19.588Z,6.08
2023-03-29T21:47:23.237Z,6.13
2023-03-29T21:50:27.756Z,6.15
2023-03-29T21:53:31.551Z,6.14
2023-03-29T21:56:35.213Z,6.12
2023-03-29T21:59:38.244Z,6.06
2023-03-29T22:02:43.434Z,6.04
2023-03-29T22:05:59.380Z,6.05
2023-03-29T22:09:03.957Z,6.08
2023-03-29T22:12:08.484Z,6.10
2023-03-29T22:15:13.763Z,6.10
2023-03-29T22:18:17.373Z,6.15
2023-03-29T22:21:24.973Z,6.14
2023-03-29T22:24:29.593Z,6.10
2023-03-29T22:27:32.748Z,6.07
2023-03-29T22:30:36.576Z,6.03
2023-03-29T22:33:42.275Z,6.08
2023-03-29T22:36:45.597Z,6.06
2023-03-29T22:39:51.653Z,6.11
2023-03-29T22:42:55.653Z,6.14
2023-03-29T22:45:58.684Z,6.22
2023-03-29T22:49:02.488Z,6.27
2023-03-29T22:52:06.350Z,6.31
2023-03-29T22:55:10.361Z,6.38
2023-03-29T22:58:14.217Z,6.48
2023-03-29T23:01:18.249Z,6.54
2023-03-29T23:04:21.494Z,6.60
2023-03-29T23:07:25.029Z,6.72
2023-03-29T23:10:29.635Z,6.79
2023-03-29T23:13:34.426Z,6.82
2023-03-29T23:16:37.700Z,6.79
2023-03-29T23:19:42.153Z,6.79
2023-03-29T23:22:45.791Z,6.68
2023-03-29T23:25:51.466Z,6.68
2023-03-29T23:28:55.455Z,6.75
2023-03-29T23:32:00.122Z,6.86
2023-03-29T23:35:05.466Z,6.99
2023-03-29T23:38:09.148Z,7.15
2023-03-29T23:41:13.977Z,7.41
2023-03-29T23:44:17.664Z,7.54
2023-03-29T23:47:21.529Z,7.72
2023-03-29T23:50:29.375Z,7.91
2023-03-29T23:53:33.310Z,8.08
2023-03-29T23:56:36.233Z,8.21
2023-03-29T23:59:40.676Z,8.36
